PWSweather.com
Personal Weather Stations
Station Observations
ISOUTHAE3
Liopessi Beach, Port Of Gavrio, Island Of AndrosGR 84501

Liopessi Beach, Port Of GavrioIsland Of AndrosGR 84501

Lat: 37.881379, Lon: 24.745103

Elevation: 52

Station Type: DAVIS Vantage Pro2

http://users.otenet.gr/~vbb/rt.html

Latest ConditionsUpdated 9:40:00 AM GMT+02:02 Tuesday, Oct 24, 2017
Currently Today's Max Today's Min Today's Average
Temperature 68.7°F20.4°C 70.2°F21.2°C 64.9°F18.3°C 67.0°F19.4°C
Dew Point 52.0°F11.1°C 64.4°F18.0°C 52.0°F11.1°C 58.5°F14.7°C
Winds 10.0 mph 16.1 kmh 29.0 mph 46.7 kmh - 8.2 mph 13.2 kmh
Wind Gusts 17.0 mph27.4 kmh 37.0 mph59.5 kmh - -
Humidity 55% 83% 54% 74%
Pressure 29.60 in1002.4 mb 29.60 in1002.4 mb 29.54 in1000.3 mb -
Precipitation - 0.01 in0.3 mm - -
Hour Temp Dew Point Humidity Winds Wind Gusts Pressure Precip Precip Rate Daily Precip Total
09:40 AM 68.7°F20.4°C 52.0°F11.1°C 55% 10.0 mph 16.1 kmh 17.0 mph27.4 kmh 29.60 in1002.4 mb 0.00 in0.0 mm 0.00 in0.0 mm 0.01 in0.3 mm
09:30 AM 69.3°F20.7°C 52.9°F11.6°C 56% 13.0 mph 20.9 kmh 18.0 mph29.0 kmh 29.59 in1002.0 mb 0.00 in0.0 mm 0.00 in0.0 mm 0.01 in0.3 mm
09:20 AM 69.8°F21.0°C 52.3°F11.3°C 54% 12.0 mph 19.3 kmh 17.0 mph27.4 kmh 29.59 in1002.0 mb 0.00 in0.0 mm 0.00 in0.0 mm 0.01 in0.3 mm
09:10 AM 69.6°F20.9°C 52.7°F11.5°C 55% 12.0 mph 19.3 kmh 17.0 mph27.4 kmh 29.59 in1002.0 mb 0.00 in0.0 mm 0.00 in0.0 mm 0.01 in0.3 mm
09:01 AM 69.3°F20.7°C 54.3°F12.4°C 59% 12.0 mph 19.3 kmh 17.0 mph27.4 kmh 29.58 in1001.7 mb 0.00 in0.0 mm 0.00 in0.0 mm 0.01 in0.3 mm
08:50 AM 68.9°F20.5°C 55.8°F13.2°C 63% 9.0 mph 14.5 kmh 14.0 mph22.5 kmh 29.58 in1001.7 mb 0.00 in0.0 mm 0.00 in0.0 mm 0.01 in0.3 mm
08:40 AM 68.5°F20.3°C 56.3°F13.5°C 65% 6.0 mph 9.7 kmh 10.0 mph16.1 kmh 29.57 in1001.4 mb 0.00 in0.0 mm 0.00 in0.0 mm 0.01 in0.3 mm
08:30 AM 67.6°F19.8°C 55.9°F13.3°C 66% 6.0 mph 9.7 kmh 10.0 mph16.1 kmh 29.57 in1001.4 mb 0.00 in0.0 mm 0.00 in0.0 mm 0.01 in0.3 mm
08:20 AM 66.9°F19.4°C 54.9°F12.7°C 65% 4.0 mph 6.4 kmh 8.0 mph12.9 kmh 29.57 in1001.4 mb 0.00 in0.0 mm 0.00 in0.0 mm 0.01 in0.3 mm
08:10 AM 65.8°F18.8°C 56.1°F13.4°C 71% 4.0 mph 6.4 kmh 8.0 mph12.9 kmh 29.57 in1001.4 mb 0.00 in0.0 mm 0.00 in0.0 mm 0.01 in0.3 mm
08:00 AM 65.7°F18.7°C 56.1°F13.4°C 71% 2.0 mph 3.2 kmh 8.0 mph12.9 kmh 29.56 in1001.0 mb 0.00 in0.0 mm 0.00 in0.0 mm 0.00 in0.0 mm
07:50 AM 66.0°F18.9°C 56.3°F13.5°C 71% 3.0 mph 4.8 kmh 8.0 mph12.9 kmh 29.56 in1001.0 mb 0.00 in0.0 mm 0.00 in0.0 mm 0.00 in0.0 mm
07:40 AM 66.4°F19.1°C 56.7°F13.7°C 71% 2.0 mph 3.2 kmh 5.0 mph8.0 kmh 29.56 in1001.0 mb 0.00 in0.0 mm 0.00 in0.0 mm 0.00 in0.0 mm
07:30 AM 66.2°F19.0°C 56.8°F13.8°C 72% 3.0 mph 4.8 kmh 6.0 mph9.7 kmh 29.56 in1001.0 mb 0.00 in0.0 mm 0.00 in0.0 mm 0.00 in0.0 mm
07:20 AM 65.7°F18.7°C 57.0°F13.9°C 74% 2.0 mph 3.2 kmh 5.0 mph8.0 kmh 29.55 in1000.7 mb 0.00 in0.0 mm 0.00 in0.0 mm 0.00 in0.0 mm
07:10 AM 65.1°F18.4°C 57.0°F13.9°C 75% 2.0 mph 3.2 kmh 5.0 mph8.0 kmh 29.55 in1000.7 mb 0.00 in0.0 mm 0.00 in0.0 mm 0.00 in0.0 mm
07:00 AM 64.9°F18.3°C 57.2°F14.0°C 76% 2.0 mph 3.2 kmh 4.0 mph6.4 kmh 29.55 in1000.7 mb 0.00 in0.0 mm 0.00 in0.0 mm 0.00 in0.0 mm
06:50 AM 64.9°F18.3°C 57.2°F14.0°C 76% 2.0 mph 3.2 kmh 4.0 mph6.4 kmh 29.55 in1000.7 mb 0.00 in0.0 mm 0.00 in0.0 mm 0.00 in0.0 mm
06:40 AM 64.9°F18.3°C 57.2°F14.0°C 76% 2.0 mph 3.2 kmh 8.0 mph12.9 kmh 29.55 in1000.7 mb 0.00 in0.0 mm 0.00 in0.0 mm 0.00 in0.0 mm
06:30 AM 64.9°F18.3°C 57.2°F14.0°C 76% 2.0 mph 3.2 kmh 5.0 mph8.0 kmh 29.55 in1000.7 mb 0.00 in0.0 mm 0.00 in0.0 mm 0.00 in0.0 mm
06:20 AM 65.1°F18.4°C 57.0°F13.9°C 75% Calm Calm 2.0 mph3.2 kmh 29.55 in1000.7 mb 0.00 in0.0 mm 0.00 in0.0 mm 0.00 in0.0 mm
06:10 AM 65.5°F18.6°C 57.4°F14.1°C 75% 1.0 mph 1.6 kmh 5.0 mph8.0 kmh 29.55 in1000.7 mb 0.00 in0.0 mm 0.00 in0.0 mm 0.00 in0.0 mm
06:00 AM 65.7°F18.7°C 57.6°F14.2°C 75% 3.0 mph 4.8 kmh 10.0 mph16.1 kmh 29.55 in1000.7 mb 0.00 in0.0 mm 0.00 in0.0 mm 0.00 in0.0 mm
05:50 AM 65.7°F18.7°C 57.9°F14.4°C 76% 4.0 mph 6.4 kmh 8.0 mph12.9 kmh 29.55 in1000.7 mb 0.00 in0.0 mm 0.00 in0.0 mm 0.00 in0.0 mm
05:40 AM 65.7°F18.7°C 57.9°F14.4°C 76% 4.0 mph 6.4 kmh 9.0 mph14.5 kmh 29.55 in1000.7 mb 0.00 in0.0 mm 0.00 in0.0 mm 0.00 in0.0 mm
05:30 AM 65.7°F18.7°C 57.9°F14.4°C 76% 3.0 mph 4.8 kmh 9.0 mph14.5 kmh 29.55 in1000.7 mb 0.00 in0.0 mm 0.00 in0.0 mm 0.00 in0.0 mm
05:20 AM 65.7°F18.7°C 57.9°F14.4°C 76% 5.0 mph 8.0 kmh 10.0 mph16.1 kmh 29.55 in1000.7 mb 0.00 in0.0 mm 0.00 in0.0 mm 0.00 in0.0 mm
05:10 AM 65.8°F18.8°C 58.1°F14.5°C 76% 3.0 mph 4.8 kmh 11.0 mph17.7 kmh 29.55 in1000.7 mb 0.00 in0.0 mm 0.00 in0.0 mm 0.00 in0.0 mm
05:00 AM 66.2°F19.0°C 58.5°F14.7°C 76% 5.0 mph 8.0 kmh 10.0 mph16.1 kmh 29.55 in1000.7 mb 0.00 in0.0 mm 0.00 in0.0 mm 0.00 in0.0 mm
04:50 AM 66.4°F19.1°C 58.5°F14.7°C 76% 5.0 mph 8.0 kmh 11.0 mph17.7 kmh 29.55 in1000.7 mb 0.00 in0.0 mm 0.00 in0.0 mm 0.00 in0.0 mm
04:40 AM 66.4°F19.1°C 58.6°F14.8°C 76% 6.0 mph 9.7 kmh 16.0 mph25.7 kmh 29.55 in1000.7 mb 0.00 in0.0 mm 0.00 in0.0 mm 0.00 in0.0 mm
04:30 AM 66.9°F19.4°C 59.9°F15.5°C 78% 7.0 mph 11.3 kmh 13.0 mph20.9 kmh 29.55 in1000.7 mb 0.00 in0.0 mm 0.00 in0.0 mm 0.00 in0.0 mm
04:20 AM 66.9°F19.4°C 60.3°F15.7°C 79% 8.0 mph 12.9 kmh 14.0 mph22.5 kmh 29.55 in1000.7 mb 0.00 in0.0 mm 0.00 in0.0 mm 0.00 in0.0 mm
04:10 AM 66.7°F19.3°C 59.9°F15.5°C 79% 9.0 mph 14.5 kmh 13.0 mph20.9 kmh 29.55 in1000.7 mb 0.00 in0.0 mm 0.00 in0.0 mm 0.00 in0.0 mm
04:00 AM 66.4°F19.1°C 59.7°F15.4°C 79% 9.0 mph 14.5 kmh 16.0 mph25.7 kmh 29.55 in1000.7 mb 0.00 in0.0 mm 0.00 in0.0 mm 0.00 in0.0 mm
03:50 AM 66.4°F19.1°C 60.1°F15.6°C 80% 4.0 mph 6.4 kmh 9.0 mph14.5 kmh 29.55 in1000.7 mb 0.00 in0.0 mm 0.00 in0.0 mm 0.00 in0.0 mm
03:40 AM 66.7°F19.3°C 59.9°F15.5°C 79% 4.0 mph 6.4 kmh 8.0 mph12.9 kmh 29.55 in1000.7 mb 0.00 in0.0 mm 0.00 in0.0 mm 0.00 in0.0 mm
03:30 AM 66.9°F19.4°C 60.3°F15.7°C 79% 4.0 mph 6.4 kmh 12.0 mph19.3 kmh 29.54 in1000.3 mb 0.00 in0.0 mm 0.00 in0.0 mm 0.00 in0.0 mm
03:20 AM 66.7°F19.3°C 59.9°F15.5°C 79% 5.0 mph 8.0 kmh 11.0 mph17.7 kmh 29.55 in1000.7 mb 0.00 in0.0 mm 0.00 in0.0 mm 0.00 in0.0 mm
03:10 AM 66.6°F19.2°C 59.9°F15.5°C 79% 11.0 mph 17.7 kmh 18.0 mph29.0 kmh 29.55 in1000.7 mb 0.00 in0.0 mm 0.00 in0.0 mm 0.00 in0.0 mm
03:00 AM 66.9°F19.4°C 60.8°F16.0°C 81% 4.0 mph 6.4 kmh 8.0 mph12.9 kmh 29.56 in1001.0 mb 0.00 in0.0 mm 0.00 in0.0 mm 0.00 in0.0 mm
02:50 AM 66.6°F19.2°C 60.6°F15.9°C 81% 6.0 mph 9.7 kmh 12.0 mph19.3 kmh 29.56 in1001.0 mb 0.00 in0.0 mm 0.00 in0.0 mm 0.00 in0.0 mm
02:40 AM 66.4°F19.1°C 60.4°F15.8°C 81% 4.0 mph 6.4 kmh 9.0 mph14.5 kmh 29.55 in1000.7 mb 0.00 in0.0 mm 0.00 in0.0 mm 0.00 in0.0 mm
02:30 AM 66.6°F19.2°C 60.6°F15.9°C 81% 5.0 mph 8.0 kmh 11.0 mph17.7 kmh 29.56 in1001.0 mb 0.00 in0.0 mm 0.00 in0.0 mm 0.00 in0.0 mm
02:20 AM 67.6°F19.8°C 61.2°F16.2°C 80% 7.0 mph 11.3 kmh 13.0 mph20.9 kmh 29.57 in1001.4 mb 0.00 in0.0 mm 0.00 in0.0 mm 0.00 in0.0 mm
02:10 AM 67.6°F19.8°C 61.5°F16.4°C 81% 11.0 mph 17.7 kmh 18.0 mph29.0 kmh 29.57 in1001.4 mb 0.00 in0.0 mm 0.00 in0.0 mm 0.00 in0.0 mm
02:00 AM 67.5°F19.7°C 61.0°F16.1°C 80% 10.0 mph 16.1 kmh 17.0 mph27.4 kmh 29.57 in1001.4 mb 0.00 in0.0 mm 0.00 in0.0 mm 0.00 in0.0 mm
01:50 AM 66.9°F19.4°C 59.9°F15.5°C 78% 9.0 mph 14.5 kmh 13.0 mph20.9 kmh 29.57 in1001.4 mb 0.00 in0.0 mm 0.00 in0.0 mm 0.00 in0.0 mm
01:40 AM 66.7°F19.3°C 58.6°F14.8°C 75% 11.0 mph 17.7 kmh 17.0 mph27.4 kmh 29.57 in1001.4 mb 0.00 in0.0 mm 0.00 in0.0 mm 0.00 in0.0 mm
01:30 AM 66.6°F19.2°C 57.7°F14.3°C 73% 12.0 mph 19.3 kmh 19.0 mph30.6 kmh 29.57 in1001.4 mb 0.00 in0.0 mm 0.00 in0.0 mm 0.00 in0.0 mm
01:20 AM 66.4°F19.1°C 56.7°F13.7°C 71% 11.0 mph 17.7 kmh 20.0 mph32.2 kmh 29.58 in1001.7 mb 0.00 in0.0 mm 0.00 in0.0 mm 0.00 in0.0 mm
01:10 AM 66.9°F19.4°C 57.7°F14.3°C 72% 13.0 mph 20.9 kmh 25.0 mph40.2 kmh 29.58 in1001.7 mb 0.00 in0.0 mm 0.00 in0.0 mm 0.00 in0.0 mm
01:00 AM 69.4°F20.8°C 60.4°F15.8°C 73% 20.0 mph 32.2 kmh 37.0 mph59.5 kmh 29.57 in1001.4 mb 0.00 in0.0 mm 0.00 in0.0 mm 0.00 in0.0 mm
12:50 AM 70.2°F21.2°C 63.7°F17.6°C 80% 24.0 mph 38.6 kmh 34.0 mph54.7 kmh 29.57 in1001.4 mb 0.00 in0.0 mm 0.00 in0.0 mm 0.00 in0.0 mm
12:40 AM 70.2°F21.2°C 63.7°F17.6°C 80% 25.0 mph 40.2 kmh 33.0 mph53.1 kmh 29.58 in1001.7 mb 0.00 in0.0 mm 0.00 in0.0 mm 0.00 in0.0 mm
12:30 AM 70.0°F21.1°C 63.5°F17.5°C 80% 26.0 mph 41.8 kmh 35.0 mph56.3 kmh 29.58 in1001.7 mb 0.00 in0.0 mm 0.00 in0.0 mm 0.00 in0.0 mm
12:20 AM 70.0°F21.1°C 63.9°F17.7°C 81% 29.0 mph 46.7 kmh 37.0 mph59.5 kmh 29.57 in1001.4 mb 0.00 in0.0 mm 0.00 in0.0 mm 0.00 in0.0 mm
12:10 AM 70.0°F21.1°C 64.2°F17.9°C 82% 26.0 mph 41.8 kmh 34.0 mph54.7 kmh 29.57 in1001.4 mb 0.00 in0.0 mm 0.00 in0.0 mm 0.00 in0.0 mm
12:00 AM 69.8°F21.0°C 64.4°F18.0°C 83% 22.0 mph 35.4 kmh 33.0 mph53.1 kmh 29.57 in1001.4 mb 0.00 in0.0 mm 0.00 in0.0 mm 0.00 in0.0 mm